| time (UTC) | temp F | wind direction | speed knots | gust knots | rain 1hr in | rain 24hr in | rain mn in | humidity % | barometer mb |
| 20260901213005 | 78 | 305 | 0.0 | 6.1 | 0.00 | 0.00 | 0.00 | 42 | 1017.7 |
| 20260901210006 | 79 | 272 | 0.0 | 9.6 | 0.00 | 0.00 | 0.00 | 41 | 1017.9 |
| 20260901203005 | 78 | 224 | 0.0 | 7.8 | 0.00 | 0.00 | 0.00 | 42 | 1018.1 |
| 20260901200006 | 78 | 282 | 0.0 | 4.3 | 0.00 | 0.00 | 0.00 | 43 | 1018.3 |
| 20260901193005 | 76 | 276 | 0.0 | 7.0 | 0.00 | 0.00 | 0.00 | 45 | 1018.7 |
| 20260901183005 | 73 | 228 | 0.0 | 3.5 | 0.00 | 0.00 | 0.00 | 51 | 1019.0 |
| 20260901180008 | 72 | 299 | 0.0 | 5.2 | 0.00 | 0.00 | 0.00 | 54 | 1019.0 |
| 20260901173005 | 70 | 251 | 0.0 | 6.1 | 0.00 | 0.00 | 0.00 | 57 | 1019.0 |
| 20260901170005 | 68 | 174 | 0.0 | 2.6 | 0.00 | 0.00 | 0.00 | 60 | 1019.0 |
| 20260901163005 | 67 | 235 | 0.0 | 3.5 | 0.00 | 0.00 | 0.00 | 64 | 1018.8 |
| 20260901160005 | 64 | 130 | 0.0 | 4.3 | 0.00 | 0.00 | 0.00 | 72 | 1018.6 |
| 20260901153005 | 62 | 168 | 0.0 | 2.6 | 0.00 | 0.00 | 0.00 | 78 | 1018.3 |
| 20260901150005 | 60 | 158 | 0.0 | 0.9 | 0.00 | 0.00 | 0.00 | 82 | 1017.9 |
| 20260901143005 | 56 | 0.0 | 0.0 | 0.00 | 0.00 | 0.00 | 89 | 1017.6 | |
| 20260901140005 | 54 | 0.0 | 0.0 | 0.00 | 0.00 | 0.00 | 92 | 1017.2 | |
| 20260901133005 | 55 | 0.0 | 0.0 | 0.00 | 0.00 | 0.00 | 88 | 1016.9 | |
| 20260901130006 | 56 | 0.0 | 0.0 | 0.00 | 0.00 | 0.00 | 84 | 1016.7 | |
| 20260901123005 | 56 | 248 | 0.0 | 4.3 | 0.00 | 0.00 | 0.00 | 86 | 1016.6 |
| 20260901120005 | 55 | 0.0 | 0.0 | 0.00 | 0.00 | 0.00 | 85 | 1016.6 | |
| 20260901113005 | 57 | 0.0 | 0.0 | 0.00 | 0.00 | 0.00 | 83 | 1016.2 | |
| 20260901110005 | 57 | 278 | 0.0 | 4.3 | 0.00 | 0.00 | 0.00 | 84 | 1016.0 |
| 20260901103005 | 56 | 323 | 0.0 | 3.5 | 0.00 | 0.00 | 0.00 | 86 | 1015.9 |
| 20260901100005 | 56 | 0.0 | 0.0 | 0.00 | 0.00 | 0.00 | 84 | 1016.0 | |
| 20260901093005 | 58 | 284 | 0.0 | 2.6 | 0.00 | 0.00 | 0.00 | 82 | 1015.9 |
| 20260901090005 | 58 | 306 | 0.0 | 4.3 | 0.00 | 0.00 | 0.00 | 80 | 1015.9 |
| 20260901083005 | 59 | 287 | 0.0 | 4.3 | 0.00 | 0.00 | 0.00 | 79 | 1016.0 |
| 20260901080005 | 60 | 289 | 0.0 | 7.0 | 0.00 | 0.00 | 0.00 | 77 | 1015.8 |
| 20260901073005 | 60 | 275 | 0.0 | 7.8 | 0.00 | 0.00 | 0.00 | 77 | 1015.8 |
| 20260901070005 | 61 | 282 | 0.0 | 8.7 | 0.00 | 0.00 | 0.00 | 77 | 1015.8 |
| 20260901063006 | 61 | 284 | 0.0 | 13.0 | 0.00 | 0.00 | 0.00 | 78 | 1015.9 |
| 20260901060006 | 61 | 279 | 0.0 | 10.4 | 0.00 | 0.00 | 0.00 | 77 | 1015.7 |
| 20260901053006 | 61 | 276 | 0.0 | 10.4 | 0.00 | 0.00 | 0.00 | 76 | 1015.4 |
| 20260901050006 | 62 | 265 | 0.0 | 9.6 | 0.00 | 0.00 | 0.00 | 75 | 1015.3 |
| 20260901043005 | 62 | 274 | 0.0 | 12.2 | 0.00 | 0.00 | 0.00 | 75 | 1015.2 |
| 20260901040005 | 63 | 289 | 0.0 | 12.2 | 0.00 | 0.00 | 0.00 | 74 | 1014.9 |
| 20260901033005 | 64 | 282 | 0.0 | 14.8 | 0.00 | 0.00 | 0.00 | 72 | 1014.4 |
| 20260901030005 | 65 | 292 | 0.0 | 14.8 | 0.00 | 0.00 | 0.00 | 70 | 1014.0 |
| 20260901023005 | 67 | 278 | 0.0 | 12.2 | 0.00 | 0.00 | 0.00 | 66 | 1013.9 |
| 20260901020005 | 69 | 273 | 0.0 | 13.9 | 0.00 | 0.00 | 0.00 | 62 | 1013.7 |
| 20260901013005 | 75 | 273 | 0.0 | 13.0 | 0.00 | 0.00 | 0.00 | 55 | 1013.5 |
| 20260901010005 | 76 | 274 | 0.0 | 9.6 | 0.00 | 0.00 | 0.00 | 52 | 1013.3 |
| 20260901003005 | 78 | 266 | 0.0 | 13.0 | 0.00 | 0.00 | 0.00 | 49 | 1013.4 |
| 20260901000005 | 79 | 279 | 0.0 | 10.4 | 0.00 | 0.00 | 0.00 | 45 | 1013.4 |
| 20260831233005 | 78 | 279 | 0.0 | 10.4 | 0.00 | 0.00 | 0.00 | 47 | 1013.8 |
| 20260831230005 | 78 | 267 | 0.0 | 13.0 | 0.00 | 0.00 | 0.00 | 48 | 1013.9 |
| 20260831223005 | 78 | 284 | 0.0 | 14.8 | 0.00 | 0.00 | 0.00 | 49 | 1014.1 |
| 20260831220006 | 78 | 246 | 0.0 | 13.0 | 0.00 | 0.00 | 0.00 | 47 | 1014.4 |